Springboro, Pennsylvania
Current Conditions -  °F | °C
As of 6:37 AM on Tuesday 21 Oct 2014 (Local Time) from KGKJ Reporting Station
Haze Haze  
Wind Chill: 50°   Ceiling: 2900
Heat Index: 50°   Visibility: 5mi
Dew Point: 47°   Wind: 3mph
Humidity: 89%   Direction: 340°NNW
Pressure: 29.82"   Gusts: NA
Location:  41.8°N, 80.37°W
Report Text: KGKJ 211037Z AUTO 34003KT 5SM BR FEW008 BKN029 OVC050 10/08 A2982 RMK AO2 RAB11E29 P0001 T01000083 TSNO
Loading
Personal Weather Stations






























Interactive Weather Map
Tropical Storm Tracking
New forecast layout! Learn more

10-Day Weather Forecast

Advertisements
Track Severe Weather on mobile